Time;durP1;ratioP1;P1;durP2;ratioP2;P2;SDS_P1;SDS_P2;PMS_P1;PMS_P2;Temp;Humidity;BMP_temperature;BMP_pressure;BME280_temperature;BME280_humidity;BME280_pressure;Samples;Min_cycle;Max_cycle;Signal;HPM_P1;HPM_P2
2022/01/21 00:01:34;;;;;;;38.30;25.35;;;;;;;11.27;45.60;101705.50;144994;676;5004;-78
2022/01/21 00:04:00;;;;;;;35.42;24.15;;;;;;;11.15;46.96;101699.78;144994;573;5004;-78
2022/01/21 00:06:30;;;;;;;39.35;27.55;;;;;;;11.10;45.98;101694.37;144994;601;5004;-79
2022/01/21 00:08:58;;;;;;;36.78;26.25;;;;;;;11.09;45.69;101700.44;144994;613;5004;-78
2022/01/21 00:11:25;;;;;;;39.40;26.70;;;;;;;11.10;45.79;101703.91;144994;568;5005;-80
2022/01/21 00:13:53;;;;;;;38.33;26.58;;;;;;;11.10;45.98;101694.37;144994;572;5004;-80
2022/01/21 00:16:22;;;;;;;37.42;28.00;;;;;;;11.08;46.14;101694.31;144994;598;5004;-79
2022/01/21 00:18:56;;;;;;;35.92;27.00;;;;;;;11.07;46.00;101689.97;144994;578;5004;-78
2022/01/21 00:32:22;;;;;;;35.58;26.30;;;;;;;11.01;46.33;101688.81;144994;640;5004;-80
2022/01/21 00:34:49;;;;;;;34.28;24.35;;;;;;;10.98;46.58;101686.97;144994;600;5004;-80
2022/01/21 00:37:15;;;;;;;34.58;24.37;;;;;;;10.95;46.87;101679.03;144994;599;5004;-81
2022/01/21 00:39:45;;;;;;;33.42;23.87;;;;;;;10.91;46.52;101674.50;144994;567;5004;-81
2022/01/21 00:42:33;;;;;;;36.45;24.95;;;;;;;10.91;46.75;101673.63;144994;606;5004;-80
2022/01/21 00:45:00;;;;;;;33.63;24.45;;;;;;;10.89;46.69;101679.62;144994;596;5002;-79
2022/01/21 00:47:29;;;;;;;32.33;23.60;;;;;;;10.89;47.08;101683.97;144994;590;5002;-79
2022/01/21 00:49:57;;;;;;;32.83;24.00;;;;;;;10.87;47.26;101683.00;144994;583;5002;-80
2022/01/21 00:52:23;;;;;;;28.67;21.60;;;;;;;10.85;47.10;101677.75;144994;645;5002;-78
2022/01/21 00:54:49;;;;;;;27.73;19.67;;;;;;;10.83;47.09;101671.59;144994;616;5002;-80
2022/01/21 00:57:16;;;;;;;28.15;20.27;;;;;;;10.82;47.30;101675.00;144994;610;5002;-78
2022/01/21 00:59:42;;;;;;;31.75;20.80;;;;;;;10.84;47.43;101662.09;144994;602;5002;-79
2022/01/21 01:02:20;;;;;;;31.75;21.87;;;;;;;10.83;47.79;101671.59;144994;737;5002;-78
2022/01/21 01:05:02;;;;;;;29.08;21.42;;;;;;;10.86;48.09;101682.13;144994;596;5002;-80
2022/01/21 01:07:33;;;;;;;28.05;19.58;;;;;;;10.95;47.90;101676.44;144994;571;5002;-80
2022/01/21 01:10:01;;;;;;;24.73;17.60;;;;;;;10.98;47.90;101660.97;144994;571;5002;-78
2022/01/21 01:12:48;;;;;;;25.42;16.48;;;;;;;10.99;47.89;101664.47;144993;623;5002;-80
2022/01/21 01:20:48;;;;;;;22.67;15.20;;;;;;;10.90;47.96;101651.97;144994;709;5002;-80
2022/01/21 01:23:26;;;;;;;20.50;14.15;;;;;;;10.87;47.70;101655.31;144994;577;5002;-79
2022/01/21 01:28:57;;;;;;;19.87;13.50;;;;;;;10.84;47.99;101649.09;144994;724;5004;-80
2022/01/21 01:31:23;;;;;;;20.52;12.82;;;;;;;10.83;48.34;101640.44;144994;624;5004;-79
2022/01/21 01:33:52;;;;;;;17.67;13.25;;;;;;;10.82;48.22;101641.25;144994;581;5004;-79
2022/01/21 01:36:20;;;;;;;20.23;13.27;;;;;;;10.81;48.70;101631.66;144994;620;5004;-78
2022/01/21 01:39:06;;;;;;;24.95;15.80;;;;;;;10.82;48.53;101637.78;144994;625;5004;-80
2022/01/21 01:42:00;;;;;;;24.87;16.30;;;;;;;10.81;48.54;101628.19;144994;565;5004;-79
2022/01/21 01:49:55;;;;;;;21.77;15.90;;;;;;;10.80;49.11;101624.72;144994;581;5006;-78
2022/01/21 01:52:21;;;;;;;21.92;14.60;;;;;;;10.81;48.88;101616.09;144994;593;5004;-78
2022/01/21 01:54:57;;;;;;;21.52;14.10;;;;;;;10.84;48.94;101603.22;144994;593;5004;-78
2022/01/21 01:57:24;;;;;;;18.40;13.48;;;;;;;10.89;49.25;101599.09;144994;585;5004;-80
2022/01/21 01:59:52;;;;;;;18.50;13.20;;;;;;;10.97;49.22;101603.75;144994;583;5004;-84
2022/01/21 02:02:23;;;;;;;19.33;13.00;;;;;;;11.02;49.06;101600.53;144994;603;5005;-78
2022/01/21 02:04:51;;;;;;;17.80;11.23;;;;;;;11.08;48.97;101600.78;144994;584;5004;-77
2022/01/21 02:07:36;;;;;;;15.40;11.05;;;;;;;11.17;49.22;101599.41;144994;585;5004;-78
2022/01/21 02:10:13;;;;;;;14.38;10.70;;;;;;;11.29;49.18;101599.87;144994;609;5005;-82
2022/01/21 02:12:47;;;;;;;14.07;9.50;;;;;;;11.36;49.09;101598.44;144994;588;5004;-78
2022/01/21 02:15:24;;;;;;;15.27;9.15;;;;;;;11.44;48.98;101599.66;144994;566;5004;-77
2022/01/21 02:23:23;;;;;;;10.52;6.47;;;;;;;11.48;48.70;101588.53;144994;563;5004;-78
2022/01/21 02:25:53;;;;;;;10.90;6.95;;;;;;;11.39;48.43;101581.25;144994;571;5004;-79
2022/01/21 02:28:22;;;;;;;9.13;6.65;;;;;;;11.35;48.49;101573.28;144994;573;5004;-80
2022/01/21 02:31:12;;;;;;;11.50;6.72;;;;;;;11.30;48.72;101586.06;144994;608;5004;-78
2022/01/21 02:33:39;;;;;;;8.00;6.55;;;;;;;11.27;48.78;101585.06;144994;628;4566;-78
2022/01/21 02:36:07;;;;;;;9.32;6.40;;;;;;;11.23;49.01;101589.22;144994;610;4567;-80
2022/01/21 02:38:37;;;;;;;9.60;6.50;;;;;;;11.17;48.87;101584.69;144994;586;4572;-78
2022/01/21 02:41:04;;;;;;;9.98;6.30;;;;;;;11.12;49.20;101581.03;144992;725;6002;-79
2022/01/21 02:43:31;;;;;;;7.57;5.87;;;;;;;11.09;48.96;101575.69;144992;585;6002;-79
2022/01/21 02:46:04;;;;;;;9.20;6.12;;;;;;;11.05;49.08;101577.25;144992;578;6002;-78
2022/01/21 02:48:37;;;;;;;10.90;6.65;;;;;;;11.04;49.55;101577.22;144992;605;6002;-78
2022/01/21 02:51:06;;;;;;;9.57;6.57;;;;;;;11.00;49.37;101570.13;144992;644;6002;-79
2022/01/21 02:56:33;;;;;;;11.75;7.00;;;;;;;11.04;49.57;101572.91;144992;604;6004;-81
2022/01/21 02:59:00;;;;;;;9.60;7.35;;;;;;;11.12;49.94;101581.03;144992;603;6004;-79
2022/01/21 03:01:26;;;;;;;12.23;7.10;;;;;;;11.14;49.52;101579.37;144992;633;6004;-79
2022/01/21 03:03:53;;;;;;;9.10;6.82;;;;;;;11.15;49.96;101568.16;144992;585;6004;-79
2022/01/21 03:06:22;;;;;;;10.68;6.60;;;;;;;11.15;49.54;101582.84;144992;607;6004;-79
2022/01/21 03:08:51;;;;;;;9.85;6.95;;;;;;;11.13;49.73;101572.37;144992;562;6004;-79
2022/01/21 03:11:18;;;;;;;12.65;6.50;;;;;;;11.10;49.66;101563.59;144991;592;6000;-79
2022/01/21 03:13:45;;;;;;;10.20;6.85;;;;;;;11.08;50.15;101563.53;144992;739;6002;-78
2022/01/21 03:16:12;;;;;;;11.63;6.95;;;;;;;11.08;49.96;101558.31;144992;710;6002;-78
2022/01/21 03:18:39;;;;;;;11.20;6.55;;;;;;;11.07;50.08;101556.53;144992;602;6002;-78
2022/01/21 03:21:09;;;;;;;10.48;6.90;;;;;;;11.08;50.31;101556.59;144992;589;6002;-78
2022/01/21 03:23:37;;;;;;;11.07;7.43;;;;;;;11.10;50.67;101561.88;144992;585;6002;-78
2022/01/21 03:26:05;;;;;;;10.40;6.68;;;;;;;11.10;50.91;101550.59;144992;574;6002;-77
2022/01/21 03:28:35;;;;;;;12.65;7.25;;;;;;;10.91;51.64;101541.16;144992;581;6002;-78
2022/01/21 03:31:01;;;;;;;12.27;8.68;;;;;;;11.05;51.56;101533.09;144992;575;6002;-79
2022/01/21 03:33:29;;;;;;;10.85;8.07;;;;;;;11.10;51.33;101522.00;144992;584;6002;-77
2022/01/21 03:35:55;;;;;;;11.50;8.57;;;;;;;11.12;51.21;101503.06;144992;572;6002;-79
2022/01/21 03:38:26;;;;;;;11.50;8.13;;;;;;;11.12;50.96;101496.97;144992;582;6002;-79
2022/01/21 03:40:54;;;;;;;13.25;8.27;;;;;;;11.15;51.14;101500.59;144992;580;6002;-78
2022/01/21 03:43:22;;;;;;;12.75;9.05;;;;;;;11.17;51.15;101501.53;144992;727;6002;-78
2022/01/21 03:45:51;;;;;;;11.45;9.43;;;;;;;11.19;51.50;101502.47;144992;596;6002;-79
2022/01/21 03:48:20;;;;;;;11.88;9.68;;;;;;;11.25;51.32;101496.66;144992;662;6002;-79
2022/01/21 03:50:47;;;;;;;12.18;9.25;;;;;;;11.32;51.25;101496.03;144992;590;6002;-79
2022/01/21 03:53:13;;;;;;;14.95;9.27;;;;;;;11.39;51.49;101503.25;144992;570;6002;-78
2022/01/21 03:55:41;;;;;;;12.68;8.38;;;;;;;11.43;51.40;101494.75;144992;617;6002;-78
2022/01/21 03:58:10;;;;;;;11.63;8.15;;;;;;;11.46;51.36;101501.78;144992;588;6002;-79
2022/01/21 04:00:40;;;;;;;14.00;7.50;;;;;;;11.45;51.55;101500.00;144992;573;6002;-78
2022/01/21 04:03:06;;;;;;;11.10;7.20;;;;;;;11.41;51.16;101505.94;144992;584;6002;-79
2022/01/21 04:05:33;;;;;;;9.70;7.32;;;;;;;11.40;51.26;101514.53;144992;581;6002;-79
2022/01/21 04:08:02;;;;;;;12.45;6.65;;;;;;;11.38;51.63;101518.81;144992;654;6002;-79
2022/01/21 04:10:29;;;;;;;9.38;7.00;;;;;;;11.34;51.48;101509.09;144992;581;6002;-79
2022/01/21 04:12:55;;;;;;;13.85;7.82;;;;;;;11.32;51.53;101497.75;144992;588;6002;-79
2022/01/21 04:15:23;;;;;;;14.02;8.40;;;;;;;11.31;51.47;101498.56;144992;563;6002;-79
2022/01/21 04:17:50;;;;;;;11.63;8.70;;;;;;;11.30;51.69;101502.03;144992;569;6002;-78
2022/01/21 04:20:17;;;;;;;14.13;9.13;;;;;;;11.28;51.90;101498.44;144992;577;6002;-77
2022/01/21 04:22:43;;;;;;;13.98;8.75;;;;;;;11.27;51.75;101494.09;144992;574;6002;-79
2022/01/21 04:25:10;;;;;;;18.52;11.10;;;;;;;11.25;52.01;101499.25;144992;566;6002;-79
2022/01/21 04:27:37;;;;;;;17.70;11.65;;;;;;;11.23;52.05;101501.78;144992;580;6002;-79
2022/01/21 04:30:10;;;;;;;16.48;11.93;;;;;;;11.21;52.11;101498.22;144992;565;6002;-80
2022/01/21 04:32:37;;;;;;;16.58;11.57;;;;;;;11.19;52.24;101499.88;144992;655;6002;-77
2022/01/21 04:35:06;;;;;;;14.05;9.95;;;;;;;11.16;52.47;101499.75;144992;605;6002;-78
2022/01/21 04:37:33;;;;;;;12.10;9.20;;;;;;;11.16;52.51;101507.53;144992;609;6006;-79
2022/01/21 04:40:09;;;;;;;11.57;7.93;;;;;;;11.15;52.68;101502.28;144992;610;6002;-78
2022/01/21 04:48:23;;;;;;;10.68;7.00;;;;;;;11.19;53.24;101520.66;144992;576;6002;-78
2022/01/21 04:53:40;;;;;;;10.77;7.07;;;;;;;11.27;53.07;101513.16;144992;606;6005;-80
2022/01/21 04:56:06;;;;;;;12.60;7.93;;;;;;;11.25;52.80;101514.84;144992;587;6004;-78
2022/01/21 04:58:33;;;;;;;14.87;8.57;;;;;;;11.22;53.36;101520.78;144992;581;6004;-79
2022/01/21 05:01:04;;;;;;;10.77;8.52;;;;;;;11.21;53.36;101528.53;144992;576;6005;-79
2022/01/21 05:03:36;;;;;;;12.68;9.50;;;;;;;11.21;53.57;101526.78;144992;603;6004;-80
2022/01/21 05:06:06;;;;;;;15.93;11.02;;;;;;;11.28;53.83;101524.44;144992;633;6004;-80
2022/01/21 05:11:19;;;;;;;17.75;12.40;;;;;;;11.37;53.62;101522.22;144992;586;6002;-79
2022/01/21 05:14:10;;;;;;;16.98;10.45;;;;;;;11.38;53.70;101521.41;144992;566;6002;-79
2022/01/21 05:16:39;;;;;;;12.88;9.77;;;;;;;11.40;53.68;101515.41;144992;608;6002;-80
2022/01/21 05:19:14;;;;;;;13.27;9.63;;;;;;;11.43;53.72;101517.25;144992;570;6002;-80
2022/01/21 05:21:41;;;;;;;14.05;9.43;;;;;;;11.38;53.78;101516.19;144992;581;6002;-80
2022/01/21 05:24:07;;;;;;;14.75;9.07;;;;;;;11.30;54.08;101518.50;144992;655;6002;-79
2022/01/21 05:26:39;;;;;;;18.10;12.05;;;;;;;11.22;54.07;101520.78;144992;570;6002;-79
2022/01/21 05:29:07;;;;;;;17.65;12.60;;;;;;;11.17;54.12;101529.25;144992;580;6002;-79
2022/01/21 05:31:34;;;;;;;16.90;11.15;;;;;;;11.19;54.24;101531.06;144992;583;6002;-79
2022/01/21 05:34:03;;;;;;;18.70;10.20;;;;;;;11.20;54.12;101534.56;144992;644;6002;-79
2022/01/21 05:36:31;;;;;;;16.62;10.15;;;;;;;11.17;55.53;101537.03;144992;563;6002;-79
2022/01/21 05:38:59;;;;;;;16.27;10.23;;;;;;;11.06;54.32;101532.28;144992;564;6002;-80
2022/01/21 05:41:26;;;;;;;14.90;9.50;;;;;;;11.07;54.49;101534.06;144992;622;6002;-80
2022/01/21 05:44:00;;;;;;;14.80;9.70;;;;;;;11.07;54.69;101533.16;144992;625;6002;-78
2022/01/21 05:46:46;;;;;;;;;;;;;;;11.09;54.83;101531.53;144997;910;6002;-81
2022/01/21 05:49:15;;;;;;;15.05;9.52;;;;;;;11.09;54.68;101528.94;144997;684;6000;-79
2022/01/21 05:51:42;;;;;;;15.77;8.82;;;;;;;11.11;54.63;101537.66;144992;589;6002;-80
2022/01/21 05:54:09;;;;;;;14.93;7.97;;;;;;;11.15;54.79;101531.78;144992;597;6002;-78
2022/01/21 05:56:38;;;;;;;13.90;7.87;;;;;;;11.20;55.04;101521.56;144992;711;6002;-79
2022/01/21 05:59:09;;;;;;;12.25;8.60;;;;;;;11.25;55.23;101526.09;144992;569;6002;-77
2022/01/21 06:01:37;;;;;;;15.57;8.50;;;;;;;11.32;55.08;101529.84;144992;578;6002;-79
2022/01/21 06:04:04;;;;;;;13.20;8.23;;;;;;;11.34;54.58;101524.69;144992;571;6002;-77
2022/01/21 06:06:32;;;;;;;13.30;9.15;;;;;;;11.34;54.61;101507.41;144992;634;6002;-78
2022/01/21 06:08:59;;;;;;;13.82;8.40;;;;;;;11.32;54.74;101515.97;144992;573;6002;-76
2022/01/21 06:11:26;;;;;;;13.18;8.52;;;;;;;11.29;54.98;101506.31;144992;579;6002;-78
2022/01/21 06:13:53;;;;;;;16.42;8.05;;;;;;;11.27;54.76;101507.09;144992;599;6002;-78
2022/01/21 06:16:19;;;;;;;16.33;9.80;;;;;;;11.25;55.13;101494.91;144992;594;6002;-78
2022/01/21 06:18:46;;;;;;;15.98;9.77;;;;;;;11.30;54.90;101491.63;144992;580;6002;-78
2022/01/21 06:21:13;;;;;;;18.65;12.35;;;;;;;11.33;54.87;101500.41;144992;590;6002;-77
2022/01/21 06:23:39;;;;;;;19.33;13.80;;;;;;;11.35;55.13;101496.16;144992;594;6002;-77
2022/01/21 06:26:07;;;;;;;22.23;13.02;;;;;;;11.34;54.75;101486.59;144992;605;6002;-77
2022/01/21 06:28:33;;;;;;;20.27;13.25;;;;;;;11.35;54.93;101496.16;144992;590;6002;-77
2022/01/21 06:31:00;;;;;;;20.23;12.65;;;;;;;11.37;55.36;101501.41;144992;583;6002;-77
2022/01/21 06:33:27;;;;;;;19.25;11.77;;;;;;;11.37;55.40;101494.53;144992;593;6002;-74
2022/01/21 06:35:57;;;;;;;20.95;13.05;;;;;;;11.43;55.53;101510.34;144992;624;6002;-77
2022/01/21 06:38:24;;;;;;;25.95;15.80;;;;;;;11.51;55.29;101501.97;144992;587;6002;-77
2022/01/21 06:40:51;;;;;;;27.35;17.95;;;;;;;11.72;55.32;101497.56;144992;614;6002;-79
2022/01/21 06:43:18;;;;;;;30.02;19.52;;;;;;;12.03;54.82;101509.16;144991;655;6002;-79
2022/01/21 06:45:45;;;;;;;25.05;18.92;;;;;;;12.36;53.98;101508.59;144992;569;6002;-78
2022/01/21 06:48:11;;;;;;;23.95;17.50;;;;;;;12.89;53.22;101524.28;144992;615;6002;-79
2022/01/21 06:50:40;;;;;;;26.62;18.50;;;;;;;13.27;52.53;101522.03;144992;660;6002;-78
2022/01/21 06:53:07;;;;;;;22.73;16.02;;;;;;;13.36;52.76;101517.12;144992;667;6002;-78
2022/01/21 06:55:34;;;;;;;23.45;16.25;;;;;;;13.48;52.86;101521.81;144992;596;6002;-78
2022/01/21 06:58:02;;;;;;;23.85;15.95;;;;;;;13.65;53.23;101506.69;144992;614;6002;-80
2022/01/21 07:00:28;;;;;;;21.98;14.38;;;;;;;13.94;53.20;101504.91;144992;570;6003;-79
2022/01/21 07:02:55;;;;;;;20.23;14.90;;;;;;;14.16;53.05;101508.13;144992;586;6002;-78
2022/01/21 07:05:22;;;;;;;20.85;13.73;;;;;;;14.23;53.07;101499.62;144992;584;6002;-80
2022/01/21 07:07:49;;;;;;;21.00;12.98;;;;;;;14.29;52.80;101496.31;144992;566;6003;-77
2022/01/21 07:10:16;;;;;;;20.73;12.15;;;;;;;14.32;52.52;101486.81;144992;721;6002;-78
2022/01/21 07:12:44;;;;;;;21.62;12.25;;;;;;;14.27;52.80;101485.81;144992;608;6002;-78
2022/01/21 07:15:18;;;;;;;18.45;11.60;;;;;;;14.23;52.26;101481.34;144992;575;6002;-77
2022/01/21 07:17:44;;;;;;;21.70;12.23;;;;;;;14.17;52.34;101477.69;144992;615;6002;-79
2022/01/21 07:20:12;;;;;;;18.77;11.82;;;;;;;14.08;52.23;101476.59;144991;584;6002;-77
2022/01/21 07:22:38;;;;;;;14.40;11.45;;;;;;;13.99;52.25;101480.69;144992;620;6002;-78
2022/01/21 07:25:06;;;;;;;15.68;11.23;;;;;;;13.88;52.08;101478.63;144992;586;6002;-77
2022/01/21 07:27:33;;;;;;;15.95;11.32;;;;;;;13.78;52.06;101476.63;144992;585;6002;-77
2022/01/21 07:29:59;;;;;;;17.10;11.20;;;;;;;13.71;52.38;101477.28;144992;585;6002;-77
2022/01/21 07:32:26;;;;;;;15.30;11.43;;;;;;;13.68;52.31;101472.88;144992;607;6002;-78
2022/01/21 07:34:54;;;;;;;16.45;11.55;;;;;;;13.67;52.16;101471.09;144992;655;6002;-78
2022/01/21 07:37:20;;;;;;;19.48;12.40;;;;;;;13.70;52.47;101463.34;144992;586;6002;-79
2022/01/21 07:39:47;;;;;;;15.38;11.82;;;;;;;13.76;52.53;101465.22;144992;573;6002;-78
2022/01/21 07:42:13;;;;;;;16.12;12.10;;;;;;;13.85;52.69;101454.19;144992;579;6002;-78
2022/01/21 07:44:40;;;;;;;17.08;11.90;;;;;;;14.09;54.31;101452.28;144991;606;6002;-78
2022/01/21 07:47:06;;;;;;;15.85;11.90;;;;;;;14.56;53.49;101454.34;144992;590;6002;-77
2022/01/21 07:49:33;;;;;;;18.40;12.88;;;;;;;15.09;52.10;101450.41;144992;604;6002;-80
2022/01/21 07:52:00;;;;;;;21.42;13.85;;;;;;;15.52;51.22;101440.87;144992;646;6002;-78
2022/01/21 07:54:27;;;;;;;19.60;14.68;;;;;;;15.88;50.80;101442.50;144992;601;6002;-80
2022/01/21 07:56:54;;;;;;;20.85;14.90;;;;;;;16.19;50.65;101446.56;144992;647;6002;-81
2022/01/21 07:59:20;;;;;;;20.92;15.82;;;;;;;16.39;50.56;101444.31;144992;606;6002;-79
2022/01/21 08:01:58;;;;;;;22.77;14.02;;;;;;;16.43;49.67;101443.53;144992;598;6002;-80
2022/01/21 08:04:27;;;;;;;18.90;13.95;;;;;;;16.51;50.17;101443.63;144992;655;6002;-79
2022/01/21 08:06:53;;;;;;;14.80;12.23;;;;;;;16.59;49.83;101435.91;144992;573;6010;-80
2022/01/21 08:09:24;;;;;;;14.05;11.20;;;;;;;16.77;49.97;101436.19;144992;564;6002;-79
2022/01/21 08:11:54;;;;;;;15.93;11.45;;;;;;;16.98;48.80;101432.19;144992;626;6002;-79
2022/01/21 08:14:25;;;;;;;11.88;9.15;;;;;;;17.27;48.53;101429.94;144992;625;6002;-79
2022/01/21 08:16:53;;;;;;;10.65;8.65;;;;;;;17.55;46.64;101433.81;144992;616;6002;-80
2022/01/21 08:19:20;;;;;;;12.68;8.85;;;;;;;17.83;47.07;101433.25;144992;571;6002;-81
2022/01/21 08:21:51;;;;;;;16.12;11.05;;;;;;;18.09;48.45;101442.34;144992;631;6002;-80
2022/01/21 08:24:21;;;;;;;16.10;11.52;;;;;;;18.30;47.99;101448.69;144992;597;6002;-80
2022/01/21 08:26:50;;;;;;;23.35;12.25;;;;;;;18.45;46.43;101440.03;144992;576;6002;-80
2022/01/21 08:29:17;;;;;;;13.85;10.00;;;;;;;18.64;46.12;101443.72;144992;634;6002;-79
2022/01/21 08:31:44;;;;;;;15.40;10.30;;;;;;;18.84;47.78;101449.16;144992;638;6002;-79
2022/01/21 08:34:14;;;;;;;10.95;9.55;;;;;;;18.94;47.17;101447.47;144992;577;6002;-80
2022/01/21 08:36:43;;;;;;;12.52;8.73;;;;;;;19.00;45.62;101444.88;144992;581;6002;-79
2022/01/21 08:39:10;;;;;;;10.52;8.02;;;;;;;19.11;46.22;101432.69;144992;737;6002;-80
2022/01/21 08:41:38;;;;;;;10.48;9.20;;;;;;;19.28;47.33;101439.78;144992;735;6002;-80
2022/01/21 08:44:05;;;;;;;7.68;5.72;;;;;;;19.36;43.58;101432.81;144992;630;6002;-89
2022/01/21 08:46:33;;;;;;;7.47;5.70;;;;;;;19.40;46.11;101438.06;144992;648;6002;-87
2022/01/21 08:49:07;;;;;;;8.13;5.40;;;;;;;19.53;44.06;101441.62;144992;604;6002;-85
2022/01/21 08:51:51;;;;;;;4.75;3.67;;;;;;;19.61;45.15;101443.44;144992;582;6002;-87
2022/01/21 08:54:27;;;;;;;3.43;3.13;;;;;;;19.17;39.20;101432.72;144992;585;6002;-84
2022/01/21 08:56:57;;;;;;;4.18;3.35;;;;;;;19.16;43.89;101435.34;144993;642;6002;-87
2022/01/21 08:59:30;;;;;;;6.25;3.83;;;;;;;19.17;40.80;101426.59;144993;591;6002;-88
2022/01/21 09:01:58;;;;;;;8.52;4.15;;;;;;;19.29;42.51;101431.88;144993;644;6002;-85
2022/01/21 09:04:29;;;;;;;8.30;4.20;;;;;;;19.46;44.15;101425.84;144993;574;6002;-87
2022/01/21 09:06:56;;;;;;;7.20;4.05;;;;;;;19.55;42.94;101424.13;144993;607;6002;-89
2022/01/21 09:09:24;;;;;;;7.62;3.70;;;;;;;19.68;40.42;101416.28;144993;619;6002;-87
2022/01/21 09:11:59;;;;;;;7.37;3.40;;;;;;;19.83;41.39;101410.19;144993;649;6002;-87
2022/01/21 09:14:31;;;;;;;4.57;3.35;;;;;;;19.91;41.88;101418.97;144993;588;6003;-85
2022/01/21 09:17:05;;;;;;;7.32;3.15;;;;;;;20.10;42.92;101415.50;144993;620;6002;-88
2022/01/21 09:19:32;;;;;;;6.50;3.90;;;;;;;20.15;39.86;101412.87;144993;699;6002;-89
2022/01/21 09:27:13;;;;;;;5.50;3.33;;;;;;;20.56;40.97;101406.72;144991;567;6002;-88
2022/01/21 09:39:58;;;;;;;5.85;2.83;;;;;;;21.28;42.44;101383.72;144992;575;6002;-83
2022/01/21 09:42:35;;;;;;;3.70;2.10;;;;;;;21.32;41.21;101377.56;144993;606;6002;-89
2022/01/21 09:58:02;;;;;;;3.87;1.85;;;;;;;21.41;40.08;101339.66;144993;571;6002;-91
2022/01/21 10:00:34;;;;;;;3.47;2.28;;;;;;;21.45;38.68;101338.78;144993;572;6002;-90
2022/01/21 10:03:29;;;;;;;;;;;;;;;;;;;;;
2022/01/21 10:06:19;;;;;;;2.83;1.90;;;;;;;21.48;38.96;101344.03;144993;647;6000;-87
2022/01/21 10:08:51;;;;;;;25.02;20.05;;;;;;;21.47;38.16;101335.22;144993;630;6002;-86
2022/01/21 10:13:55;;;;;;;7.70;5.93;;;;;;;21.32;38.63;101340.59;144993;718;6003;-89
2022/01/21 10:16:24;;;;;;;2.58;1.77;;;;;;;21.36;37.76;101337.94;144993;677;6002;-88
2022/01/21 10:19:12;;;;;;;6.18;2.80;;;;;;;21.24;38.19;101339.72;144993;633;6002;-91
2022/01/21 10:21:47;;;;;;;7.43;4.62;;;;;;;21.24;37.54;101329.16;144993;594;6002;-91
2022/01/21 10:42:26;;;;;;;2.12;1.60;;;;;;;20.32;38.25;101296.88;144994;575;5002;-90
2022/01/21 10:47:29;;;;;;;4.60;2.70;;;;;;;20.67;36.75;101293.34;144994;665;5002;-90
2022/01/21 10:50:06;;;;;;;2.72;1.98;;;;;;;20.86;37.53;101277.47;144994;652;5002;-92
2022/01/21 10:52:53;;;;;;;5.87;4.75;;;;;;;21.13;37.71;101276.44;144994;642;5002;-91
2022/01/21 10:55:38;;;;;;;6.45;4.32;;;;;;;21.09;37.48;101267.66;144994;616;5004;-87
2022/01/21 10:58:16;;;;;;;;;;;;;;;20.94;37.98;101265.97;144998;912;5004;-87
2022/01/21 11:01:13;;;;;;;4.18;2.60;;;;;;;20.33;34.98;101258.22;144998;658;5000;-91
2022/01/21 11:04:12;;;;;;;4.70;3.17;;;;;;;19.64;38.39;101267.00;144994;646;5004;-91
2022/01/21 11:06:56;;;;;;;3.60;2.70;;;;;;;19.70;37.58;101265.25;144994;605;5004;-91
2022/01/21 11:09:38;;;;;;;3.67;1.73;;;;;;;19.66;38.17;101267.87;144994;580;5004;-92
2022/01/21 11:12:21;;;;;;;2.75;1.80;;;;;;;19.43;38.30;101263.47;144994;641;5004;-90
2022/01/21 11:15:14;;;;;;;2.92;1.85;;;;;;;19.46;37.93;101270.50;144994;583;5004;-83
2022/01/21 11:18:09;;;;;;;3.58;1.83;;;;;;;19.21;38.43;101273.94;144994;591;5002;-84
2022/01/21 11:20:40;;;;;;;4.68;2.25;;;;;;;19.16;38.49;101256.38;144994;589;5004;-90
2022/01/21 11:23:09;;;;;;;4.25;2.60;;;;;;;18.92;38.47;101257.19;144994;591;5004;-90
2022/01/21 11:26:00;;;;;;;4.18;1.95;;;;;;;18.68;38.84;101256.16;144994;583;5004;-88
2022/01/21 11:28:39;;;;;;;4.12;2.12;;;;;;;18.62;39.18;101259.63;144994;609;5004;-86
2022/01/21 11:31:08;;;;;;;3.28;2.55;;;;;;;18.52;38.97;101255.22;144994;609;5004;-84
2022/01/21 11:33:35;;;;;;;3.65;2.55;;;;;;;18.38;39.13;101255.13;144994;602;5004;-87
2022/01/21 11:36:04;;;;;;;3.80;2.12;;;;;;;18.16;39.30;101246.22;144994;600;5004;-87
2022/01/21 11:38:36;;;;;;;6.65;2.20;;;;;;;18.08;39.09;101245.28;144994;651;5004;-86
2022/01/21 11:41:05;;;;;;;6.20;3.83;;;;;;;18.04;39.62;101241.78;144994;605;5004;-90
2022/01/21 11:43:36;;;;;;;3.53;2.80;;;;;;;17.89;39.64;101239.88;144994;578;5004;-88
2022/01/21 11:46:20;;;;;;;4.75;3.40;;;;;;;17.86;39.61;101236.31;144994;579;5004;-87
2022/01/21 11:48:58;;;;;;;7.05;3.00;;;;;;;17.91;41.06;101239.91;144994;563;5004;-88
2022/01/21 11:51:32;;;;;;;4.40;3.10;;;;;;;18.09;40.49;101233.91;144993;690;5004;-86
2022/01/21 11:54:10;;;;;;;5.27;3.30;;;;;;;18.37;39.78;101234.09;144994;575;5002;-87
2022/01/21 11:56:49;;;;;;;5.70;3.22;;;;;;;18.26;39.44;101226.13;144994;618;5002;-88
2022/01/21 12:02:50;;;;;;;4.57;2.87;;;;;;;17.81;40.30;101214.41;144994;704;5002;-91
2022/01/21 12:05:25;;;;;;;6.62;3.97;;;;;;;18.07;40.12;101205.00;144994;600;5002;-85
2022/01/21 12:07:52;;;;;;;6.35;3.78;;;;;;;18.16;40.53;101208.56;144994;599;5002;-84
2022/01/21 12:10:32;;;;;;;5.65;3.05;;;;;;;18.14;40.66;101213.81;144994;577;5002;-87
2022/01/21 12:13:13;;;;;;;5.65;4.53;;;;;;;18.01;40.23;101212.84;144994;654;5003;-87
2022/01/21 12:16:08;;;;;;;5.40;3.70;;;;;;;18.05;40.42;101213.75;144994;575;5002;-86
2022/01/21 12:19:09;;;;;;;3.85;3.30;;;;;;;18.01;40.99;101212.84;144994;614;5002;-88
2022/01/21 12:21:41;;;;;;;11.68;3.95;;;;;;;17.93;40.99;101214.53;144994;570;5002;-87
2022/01/21 12:24:09;;;;;;;5.47;4.18;;;;;;;17.57;42.13;101226.47;144994;597;5002;-85
2022/01/21 12:26:59;;;;;;;8.82;4.70;;;;;;;17.56;41.71;101219.44;144994;564;5002;-89
2022/01/21 12:29:29;;;;;;;4.82;4.18;;;;;;;17.38;41.65;101207.91;144994;707;5004;-90
2022/01/21 12:32:07;;;;;;;6.68;3.65;;;;;;;17.24;42.27;101212.16;144994;568;5004;-88
2022/01/21 12:35:19;;;;;;;4.00;3.45;;;;;;;16.97;43.14;101212.72;144994;603;5004;-86
2022/01/21 12:41:43;;;;;;;5.93;3.37;;;;;;;16.75;42.52;101195.84;144994;602;5002;-86
2022/01/21 12:44:10;;;;;;;4.93;3.83;;;;;;;16.72;43.03;101201.94;144994;606;5004;-83
2022/01/21 12:46:40;;;;;;;5.55;5.05;;;;;;;16.67;42.91;101199.25;144994;581;5004;-84
2022/01/21 12:49:37;;;;;;;6.60;4.30;;;;;;;16.29;43.69;101206.63;144994;583;5004;-85
2022/01/21 12:57:34;;;;;;;6.12;3.20;;;;;;;16.12;43.82;101214.22;144994;584;5004;-83
2022/01/21 13:00:09;;;;;;;4.55;3.30;;;;;;;16.07;43.65;101221.13;144994;563;5004;-86
2022/01/21 13:02:37;;;;;;;4.50;2.92;;;;;;;16.11;43.36;101215.97;144994;649;5004;-87
2022/01/21 13:05:19;;;;;;;3.67;3.10;;;;;;;16.11;43.67;101218.59;144994;584;5005;-84
2022/01/21 13:08:38;;;;;;;6.97;3.60;;;;;;;16.14;43.42;101222.97;144994;606;5004;-82
2022/01/21 13:11:18;;;;;;;5.70;3.95;;;;;;;16.07;43.92;101221.13;144994;590;5002;-81
2022/01/21 13:13:59;;;;;;;6.45;4.55;;;;;;;16.02;43.73;101228.91;144994;626;5002;-84
2022/01/21 13:16:32;;;;;;;6.68;4.37;;;;;;;16.09;44.15;101235.12;144994;610;5002;-82
2022/01/21 13:19:04;;;;;;;8.73;4.35;;;;;;;16.12;44.22;101232.56;144994;569;5002;-82
2022/01/21 13:21:35;;;;;;;9.57;4.50;;;;;;;16.09;45.04;101236.00;144994;603;5002;-83
2022/01/21 13:24:12;;;;;;;9.45;4.97;;;;;;;16.21;44.50;101239.66;144994;571;5002;-84
2022/01/21 13:26:42;;;;;;;10.57;5.10;;;;;;;16.18;44.16;101231.75;144994;590;5002;-84
2022/01/21 13:29:11;;;;;;;8.98;4.50;;;;;;;16.08;44.73;101222.88;144993;584;5002;-86
2022/01/21 13:32:07;;;;;;;8.18;4.57;;;;;;;16.00;44.60;101214.91;144994;589;5002;-85
2022/01/21 13:34:36;;;;;;;6.93;3.87;;;;;;;15.92;44.77;101213.91;144994;567;5004;-82
2022/01/21 13:37:05;;;;;;;7.05;3.75;;;;;;;15.91;45.17;101226.13;144994;626;5004;-83